createdAt,value
2022-07-25T00:02:02.838Z,95489.94
2022-07-25T00:04:31.405Z,95492.34
2022-07-25T00:06:59.442Z,95489.84
2022-07-25T00:09:27.458Z,95491.56
2022-07-25T00:11:55.435Z,95491.94
2022-07-25T00:14:23.114Z,95488.25
2022-07-25T00:16:52.848Z,95482.91
2022-07-25T00:19:20.692Z,95479.97
2022-07-25T00:21:48.732Z,95479.16
2022-07-25T00:24:16.380Z,95482.09
2022-07-25T00:26:44.483Z,95487.63
2022-07-25T00:29:12.247Z,95478.53
2022-07-25T00:31:40.450Z,95476.44
2022-07-25T00:34:09.934Z,95475.84
2022-07-25T00:36:38.566Z,95477.22
2022-07-25T00:39:06.282Z,95480.88
2022-07-25T00:41:34.297Z,95482.75
2022-07-25T00:44:02.017Z,95471.41
2022-07-25T00:46:30.067Z,95467.53
2022-07-25T00:48:59.130Z,95479.56
2022-07-25T00:51:28.673Z,95468.28
2022-07-25T00:53:58.390Z,95466.41
2022-07-25T00:56:26.418Z,95472.03
2022-07-25T00:58:54.070Z,95470.63
2022-07-25T01:01:22.244Z,95463.09
2022-07-25T01:03:49.966Z,95462.44
2022-07-25T01:06:18.569Z,95460.28
2022-07-25T01:08:48.021Z,95458.31
2022-07-25T01:11:17.060Z,95457.47
2022-07-25T01:13:44.716Z,95457.16
2022-07-25T01:16:12.973Z,95460.09
2022-07-25T01:18:40.760Z,95459.19
2022-07-25T01:21:10.242Z,95467.47
2022-07-25T01:23:37.991Z,95457.50
2022-07-25T01:26:06.132Z,95453.50
2022-07-25T01:28:33.869Z,95451.81
2022-07-25T01:31:02.146Z,95452.28
2022-07-25T01:33:29.829Z,95448.25
2022-07-25T01:35:58.107Z,95445.31
2022-07-25T01:38:27.347Z,95440.78
2022-07-25T01:40:55.526Z,95438.69
2022-07-25T01:43:23.182Z,95442.91
2022-07-25T01:45:51.735Z,95441.28
2022-07-25T01:48:19.966Z,95441.28
2022-07-25T01:50:48.210Z,95434.78
2022-07-25T01:53:16.751Z,95436.09
2022-07-25T01:55:47.627Z,95433.91
2022-07-25T01:58:15.299Z,95427.97
2022-07-25T02:00:43.365Z,95433.88
2022-07-25T02:03:28.918Z,95434.91
2022-07-25T02:05:56.794Z,95438.44
2022-07-25T02:08:24.473Z,95429.34
2022-07-25T02:10:54.151Z,95423.63
2022-07-25T02:13:22.343Z,95427.47
2022-07-25T02:15:51.152Z,95420.47
2022-07-25T02:18:19.256Z,95420.22
2022-07-25T02:20:47.565Z,95418.03
2022-07-25T02:23:15.245Z,95420.22
2022-07-25T02:25:43.420Z,95414.69
2022-07-25T02:28:13.202Z,95410.38
2022-07-25T02:30:40.951Z,95412.56
2022-07-25T02:33:08.728Z,95412.44
2022-07-25T02:35:36.608Z,95410.56
2022-07-25T02:38:04.750Z,95419.94
2022-07-25T02:40:32.499Z,95411.66
2022-07-25T02:43:00.174Z,95411.09
2022-07-25T02:45:29.171Z,95405.31
2022-07-25T02:47:57.518Z,95407.97
2022-07-25T02:50:25.168Z,95405.50
2022-07-25T02:52:53.146Z,95405.19
2022-07-25T02:55:20.901Z,95413.84
2022-07-25T02:57:48.579Z,95407.25
2022-07-25T03:00:17.606Z,95406.91
2022-07-25T03:02:47.792Z,95400.66
2022-07-25T03:05:17.468Z,95397.19
2022-07-25T03:07:46.444Z,95400.78
2022-07-25T03:10:15.245Z,95398.69
2022-07-25T03:12:45.038Z,95399.84
2022-07-25T03:15:13.956Z,95392.97
2022-07-25T03:17:42.119Z,95395.88
2022-07-25T03:20:11.792Z,95398.31
2022-07-25T03:22:40.066Z,95399.44
2022-07-25T03:25:15.950Z,95395.53
2022-07-25T03:27:50.676Z,95385.69
2022-07-25T03:30:18.458Z,95394.50
2022-07-25T03:32:46.964Z,95391.69
2022-07-25T03:35:16.468Z,95393.09
2022-07-25T03:37:44.219Z,95389.47
2022-07-25T03:40:13.106Z,95393.28
2022-07-25T03:42:42.006Z,95389.09
2022-07-25T03:45:10.924Z,95388.03
2022-07-25T03:47:38.982Z,95391.28
2022-07-25T03:50:07.178Z,95377.22
2022-07-25T03:52:38.683Z,95381.28
2022-07-25T03:55:07.540Z,95384.50
2022-07-25T03:57:35.703Z,95387.78
2022-07-25T04:00:03.680Z,95387.41
2022-07-25T04:02:33.632Z,95376.75
2022-07-25T04:05:01.327Z,95378.34
2022-07-25T04:07:29.029Z,95369.66
2022-07-25T04:09:58.070Z,95375.00
2022-07-25T04:12:25.790Z,95374.50
2022-07-25T04:14:53.735Z,95376.56
2022-07-25T04:17:21.460Z,95375.34
2022-07-25T04:19:49.846Z,95374.03
2022-07-25T04:22:17.553Z,95371.66
2022-07-25T04:24:45.679Z,95369.25
2022-07-25T04:27:14.743Z,95369.91
2022-07-25T04:29:43.201Z,95366.41
2022-07-25T04:32:10.918Z,95368.03
2022-07-25T04:34:38.938Z,95369.16
2022-07-25T04:37:06.759Z,95370.97
2022-07-25T04:39:35.010Z,95365.25
2022-07-25T04:42:02.699Z,95366.41
2022-07-25T04:44:32.226Z,95364.53
2022-07-25T04:46:59.858Z,95366.56
2022-07-25T04:49:27.968Z,95360.88
2022-07-25T04:51:55.614Z,95362.66
2022-07-25T04:54:23.309Z,95362.81
2022-07-25T04:56:50.959Z,95358.13
2022-07-25T04:59:19.051Z,95359.72
2022-07-25T05:01:48.323Z,95354.84
2022-07-25T05:04:15.993Z,95361.19
2022-07-25T05:06:43.703Z,95360.97
2022-07-25T05:09:11.872Z,95360.31
2022-07-25T05:11:43.683Z,95352.22
2022-07-25T05:14:14.717Z,95353.44
2022-07-25T05:16:42.539Z,95349.81
2022-07-25T05:19:12.051Z,95350.56
2022-07-25T05:21:39.710Z,95354.97
2022-07-25T05:24:08.583Z,95349.78
2022-07-25T05:26:36.611Z,95354.28
2022-07-25T05:29:04.817Z,95358.63
2022-07-25T05:31:32.524Z,95349.41
2022-07-25T05:34:00.355Z,95352.19
2022-07-25T05:36:29.485Z,95353.13
2022-07-25T05:38:57.692Z,95347.31
2022-07-25T05:41:25.418Z,95354.16
2022-07-25T05:43:53.183Z,95354.50
2022-07-25T05:46:21.623Z,95355.09
2022-07-25T05:48:49.431Z,95359.47
2022-07-25T05:51:17.094Z,95347.75
2022-07-25T05:53:46.188Z,95351.00
2022-07-25T05:56:14.131Z,95358.63
2022-07-25T05:58:42.365Z,95350.06
2022-07-25T06:01:13.650Z,95350.91
2022-07-25T06:03:41.505Z,95347.97
2022-07-25T06:06:09.781Z,95331.31
2022-07-25T06:08:37.634Z,95338.34
2022-07-25T06:11:08.315Z,95334.03
2022-07-25T06:13:37.235Z,95335.09
2022-07-25T06:16:06.462Z,95340.47
2022-07-25T06:18:34.189Z,95342.09
2022-07-25T06:21:02.175Z,95342.06
2022-07-25T06:23:29.835Z,95336.63
2022-07-25T06:25:58.458Z,95339.56
2022-07-25T06:28:27.493Z,95349.75
2022-07-25T06:30:56.654Z,95349.75
2022-07-25T06:33:24.331Z,95345.09
2022-07-25T06:35:52.094Z,95339.63
2022-07-25T06:38:19.767Z,95340.09
2022-07-25T06:40:47.965Z,95340.81
2022-07-25T06:43:15.625Z,95341.22
2022-07-25T06:45:47.499Z,95342.69
2022-07-25T06:48:15.411Z,95337.22
2022-07-25T06:50:43.143Z,95331.59
2022-07-25T06:53:10.840Z,95335.69
2022-07-25T06:55:38.592Z,95321.47
2022-07-25T06:58:06.318Z,95334.00
2022-07-25T07:00:34.457Z,95327.06
2022-07-25T07:03:04.215Z,95331.22
2022-07-25T07:05:33.879Z,95336.16
2022-07-25T07:08:02.061Z,95330.84
2022-07-25T07:10:29.900Z,95331.19
2022-07-25T07:13:07.684Z,95333.59
2022-07-25T07:15:36.100Z,95338.03
2022-07-25T07:18:05.531Z,95326.91
2022-07-25T07:20:33.294Z,95329.53
2022-07-25T07:23:00.939Z,95319.94
2022-07-25T07:25:30.736Z,95321.91
2022-07-25T07:27:59.060Z,95316.72
2022-07-25T07:30:58.463Z,95309.16
2022-07-25T07:33:16.912Z,95301.53
2022-07-25T07:35:45.075Z,95303.50
2022-07-25T07:38:12.988Z,95310.03
2022-07-25T07:40:40.689Z,95309.63
2022-07-25T07:43:08.415Z,95312.84
2022-07-25T07:45:36.168Z,95306.34
2022-07-25T07:48:03.890Z,95307.06
2022-07-25T07:50:33.565Z,95307.06
2022-07-25T07:53:01.449Z,95304.59
2022-07-25T07:55:49.228Z,95295.81
2022-07-25T07:58:19.071Z,95296.44
2022-07-25T08:00:48.423Z,95298.69
2022-07-25T08:03:20.682Z,95292.41
2022-07-25T08:05:52.096Z,95288.25
2022-07-25T08:08:19.871Z,95286.75
2022-07-25T08:10:49.461Z,95290.63
2022-07-25T08:13:19.043Z,95282.63
2022-07-25T08:15:48.841Z,95276.25
2022-07-25T08:18:18.010Z,95275.94
2022-07-25T08:20:46.770Z,95278.78
2022-07-25T08:23:16.189Z,95271.25
2022-07-25T08:25:45.158Z,95275.75
2022-07-25T08:28:13.677Z,95276.72
2022-07-25T08:30:42.742Z,95273.47
2022-07-25T08:33:13.227Z,95266.78
2022-07-25T08:35:41.944Z,95267.41
2022-07-25T08:38:11.523Z,95274.94
2022-07-25T08:40:40.687Z,95271.41
2022-07-25T08:43:12.807Z,95269.69
2022-07-25T08:45:45.795Z,95274.22
2022-07-25T08:48:14.000Z,95262.03
2022-07-25T08:50:42.104Z,95267.34
2022-07-25T08:53:32.033Z,95263.66
2022-07-25T08:56:00.166Z,95259.47
2022-07-25T08:58:27.836Z,95262.22
2022-07-25T09:00:55.824Z,95259.09
2022-07-25T09:03:23.508Z,95257.97
2022-07-25T09:05:52.530Z,95265.34
2022-07-25T09:08:20.149Z,95262.03
2022-07-25T09:10:50.085Z,95252.28
2022-07-25T09:13:20.535Z,95259.56
2022-07-25T09:15:50.939Z,95255.94
2022-07-25T09:18:23.127Z,95243.63
2022-07-25T09:20:53.231Z,95248.69
2022-07-25T09:23:29.765Z,95247.75
2022-07-25T09:26:03.431Z,95247.56
2022-07-25T09:28:32.740Z,95240.84
2022-07-25T09:31:02.423Z,95239.91
2022-07-25T09:33:30.701Z,95237.44
2022-07-25T09:35:58.737Z,95247.09
2022-07-25T09:38:27.287Z,95235.72
2022-07-25T09:40:57.015Z,95237.72
2022-07-25T09:43:35.947Z,95228.44
2022-07-25T09:46:05.487Z,95234.88
2022-07-25T09:48:33.326Z,95231.94
2022-07-25T09:51:01.519Z,95236.13
2022-07-25T09:53:29.897Z,95229.78
2022-07-25T09:55:57.841Z,95222.91
2022-07-25T09:58:26.574Z,95223.13
2022-07-25T10:01:01.735Z,95221.75
2022-07-25T10:03:44.606Z,95222.47
2022-07-25T10:06:21.337Z,95217.69
2022-07-25T10:08:50.383Z,95216.31
2022-07-25T10:11:23.924Z,95212.19
2022-07-25T10:13:52.451Z,95208.00
2022-07-25T10:16:21.583Z,95213.13
2022-07-25T10:18:53.851Z,95211.63
2022-07-25T10:21:27.958Z,95214.47
2022-07-25T10:24:01.294Z,95213.78
2022-07-25T10:26:29.297Z,95216.31
2022-07-25T10:28:57.367Z,95218.78
2022-07-25T10:31:27.801Z,95213.19
2022-07-25T10:33:58.846Z,95208.59
2022-07-25T10:36:30.159Z,95198.81
2022-07-25T10:39:00.533Z,95207.44
2022-07-25T10:41:29.892Z,95205.53
2022-07-25T10:44:01.909Z,95204.50
2022-07-25T10:46:32.478Z,95194.91
2022-07-25T10:49:07.237Z,95196.72
2022-07-25T10:51:41.476Z,95193.66
2022-07-25T10:54:15.169Z,95190.00
2022-07-25T10:56:53.499Z,95187.34
2022-07-25T10:59:29.058Z,95190.78
2022-07-25T11:01:57.013Z,95187.34
2022-07-25T11:04:26.209Z,95180.50
2022-07-25T11:06:53.964Z,95184.00
2022-07-25T11:09:27.352Z,95178.09
2022-07-25T11:11:57.215Z,95173.72
2022-07-25T11:14:31.157Z,95170.84
2022-07-25T11:16:59.203Z,95167.72
2022-07-25T11:19:30.556Z,95165.88
2022-07-25T11:22:00.143Z,95165.53
2022-07-25T11:24:36.848Z,95167.06
2022-07-25T11:27:08.474Z,95163.06
2022-07-25T11:29:40.492Z,95163.63
2022-07-25T11:32:11.941Z,95170.91
2022-07-25T11:34:44.262Z,95151.09
2022-07-25T11:37:14.407Z,95162.91
2022-07-25T11:39:45.504Z,95154.47
2022-07-25T11:42:16.318Z,95147.66
2022-07-25T11:44:47.829Z,95150.66
2022-07-25T11:47:27.531Z,95151.66
2022-07-25T11:49:59.396Z,95147.75
2022-07-25T11:52:29.826Z,95148.03
2022-07-25T11:54:59.576Z,95142.34
2022-07-25T11:57:29.439Z,95146.88
2022-07-25T11:59:57.839Z,95140.44
2022-07-25T12:02:27.447Z,95143.13
2022-07-25T12:04:58.986Z,95138.03
2022-07-25T12:07:41.363Z,95134.66
2022-07-25T12:10:11.666Z,95134.72
2022-07-25T12:12:44.674Z,95129.66
2022-07-25T12:15:13.905Z,95132.34
2022-07-25T12:17:43.194Z,95129.34
2022-07-25T12:20:17.514Z,95128.81
2022-07-25T12:22:45.677Z,95121.88
2022-07-25T12:25:13.928Z,95121.56
2022-07-25T12:27:41.708Z,95099.94
2022-07-25T12:30:11.999Z,95102.16
2022-07-25T12:32:40.216Z,95114.09
2022-07-25T12:35:09.863Z,95121.00
2022-07-25T12:37:39.246Z,95114.09
2022-07-25T12:40:08.148Z,95105.53
2022-07-25T12:42:35.967Z,95107.13
2022-07-25T12:45:04.380Z,95102.94
2022-07-25T12:47:32.363Z,95112.81
2022-07-25T12:50:00.014Z,95104.25
2022-07-25T12:52:27.905Z,95102.91
2022-07-25T12:54:57.502Z,95093.34
2022-07-25T12:57:25.600Z,95097.75
2022-07-25T12:59:53.343Z,95090.09
2022-07-25T13:02:21.002Z,95089.97
2022-07-25T13:04:48.986Z,95092.34
2022-07-25T13:07:17.375Z,95090.41
2022-07-25T13:12:35.428Z,95079.19
2022-07-25T13:15:03.766Z,95088.19
2022-07-25T13:17:32.461Z,95087.22
2022-07-25T13:20:00.501Z,95079.38
2022-07-25T13:22:28.804Z,95075.41
2022-07-25T13:24:57.135Z,95065.56
2022-07-25T13:27:24.801Z,95061.66
2022-07-25T13:29:55.082Z,95061.47
2022-07-25T13:32:22.943Z,95076.69
2022-07-25T13:34:51.085Z,95065.94
2022-07-25T13:37:18.887Z,95062.88
2022-07-25T13:39:47.196Z,95063.16
2022-07-25T13:42:14.838Z,95054.63
2022-07-25T13:44:42.673Z,95047.94
2022-07-25T13:47:11.758Z,95045.38
2022-07-25T13:49:40.623Z,95048.47
2022-07-25T13:52:08.328Z,95038.66
2022-07-25T13:54:36.014Z,95040.81
2022-07-25T13:57:04.344Z,95044.88
2022-07-25T13:59:32.057Z,95035.06
2022-07-25T14:01:59.840Z,95030.34
2022-07-25T14:04:29.110Z,95021.69
2022-07-25T14:06:58.312Z,95033.41
2022-07-25T14:09:26.280Z,95033.78
2022-07-25T14:11:54.002Z,95021.06
2022-07-25T14:14:21.973Z,95027.22
2022-07-25T14:16:49.849Z,95027.19
2022-07-25T14:19:18.591Z,95024.88
2022-07-25T14:21:47.723Z,95028.00
2022-07-25T14:24:15.564Z,95014.44
2022-07-25T14:26:43.199Z,95016.22
2022-07-25T14:29:12.200Z,95024.34
2022-07-25T14:31:40.898Z,95009.59
2022-07-25T14:34:09.096Z,95009.28
2022-07-25T14:36:37.073Z,95001.88
2022-07-25T14:39:06.752Z,95013.31
2022-07-25T14:41:35.199Z,95010.94
2022-07-25T14:44:02.849Z,94999.19
2022-07-25T14:46:31.270Z,94999.97
2022-07-25T14:48:59.401Z,94997.53
2022-07-25T14:51:28.562Z,94990.38
2022-07-25T14:53:56.173Z,94985.81
2022-07-25T14:56:25.617Z,94989.44
2022-07-25T14:58:53.274Z,94997.53
2022-07-25T15:01:24.299Z,94992.47
2022-07-25T15:03:52.115Z,94977.28
2022-07-25T15:06:19.931Z,94984.97
2022-07-25T15:08:47.551Z,94988.88
2022-07-25T15:11:15.176Z,94983.09
2022-07-25T15:13:44.444Z,94987.78
2022-07-25T15:16:13.772Z,94980.31
2022-07-25T15:19:05.326Z,94972.34
2022-07-25T15:21:29.086Z,94976.19
2022-07-25T15:23:57.414Z,94971.13
2022-07-25T15:26:25.103Z,94961.63
2022-07-25T15:28:54.555Z,94966.63
2022-07-25T15:31:24.281Z,94955.16
2022-07-25T15:33:54.311Z,94954.94
2022-07-25T15:36:25.811Z,94965.66
2022-07-25T15:38:56.950Z,94953.03
2022-07-25T15:41:24.592Z,94957.13
2022-07-25T15:43:52.262Z,94954.97
2022-07-25T15:46:21.472Z,94956.47
2022-07-25T15:48:49.744Z,94951.72
2022-07-25T15:51:17.779Z,94946.84
2022-07-25T15:53:46.054Z,94937.81
2022-07-25T15:56:15.855Z,94943.34
2022-07-25T15:58:44.071Z,94940.56
2022-07-25T16:01:12.277Z,94944.84
2022-07-25T16:03:41.382Z,94946.97
2022-07-25T16:06:09.120Z,94933.47
2022-07-25T16:08:37.169Z,94928.84
2022-07-25T16:11:05.784Z,94939.06
2022-07-25T16:13:33.466Z,94925.91
2022-07-25T16:16:01.151Z,94932.69
2022-07-25T16:18:28.857Z,94933.00
2022-07-25T16:20:58.243Z,94930.75
2022-07-25T16:23:28.057Z,94928.22
2022-07-25T16:25:56.251Z,94933.25
2022-07-25T16:28:23.928Z,94928.81
2022-07-25T16:30:52.451Z,94929.34
2022-07-25T16:33:20.139Z,94926.66
2022-07-25T16:35:48.241Z,94919.38
2022-07-25T16:38:17.807Z,94918.66
2022-07-25T16:40:45.884Z,94918.66
2022-07-25T16:43:13.498Z,94916.41
2022-07-25T16:45:43.502Z,94919.34
2022-07-25T16:48:11.690Z,94912.41
2022-07-25T16:50:39.559Z,94913.75
2022-07-25T16:53:07.498Z,94908.81
2022-07-25T16:55:36.777Z,94907.00
2022-07-25T16:58:04.455Z,94908.66
2022-07-25T17:00:32.129Z,94913.97
2022-07-25T17:03:00.444Z,94912.88
2022-07-25T17:05:28.112Z,94912.25
2022-07-25T17:07:59.579Z,94917.47
2022-07-25T17:10:27.706Z,94913.91
2022-07-25T17:12:57.506Z,94914.88
2022-07-25T17:15:25.210Z,94924.25
2022-07-25T17:17:53.479Z,94928.81
2022-07-25T17:20:21.164Z,94917.59
2022-07-25T17:22:49.100Z,94922.94
2022-07-25T17:25:16.716Z,94927.06
2022-07-25T17:27:45.234Z,94924.91
2022-07-25T17:30:14.635Z,94930.38
2022-07-25T17:32:42.957Z,94938.69
2022-07-25T17:35:10.745Z,94941.41
2022-07-25T17:37:38.889Z,94949.84
2022-07-25T17:40:07.626Z,94952.22
2022-07-25T17:42:35.594Z,94962.06
2022-07-25T17:45:06.850Z,94956.69
2022-07-25T17:47:35.988Z,94957.94
2022-07-25T17:50:04.492Z,94954.84
2022-07-25T17:52:32.430Z,94954.84
2022-07-25T17:55:00.111Z,94957.13
2022-07-25T17:57:28.354Z,94946.31
2022-07-25T17:59:56.002Z,94948.34
2022-07-25T18:02:24.254Z,94943.47
2022-07-25T18:04:54.681Z,94940.03
2022-07-25T18:07:23.172Z,94952.19
2022-07-25T18:09:50.786Z,94950.97
2022-07-25T18:12:18.408Z,94954.88
2022-07-25T18:14:46.080Z,94955.41
2022-07-25T18:17:14.335Z,94947.56
2022-07-25T18:19:41.953Z,94955.06
2022-07-25T18:22:11.028Z,94954.69
2022-07-25T18:24:38.653Z,94961.38
2022-07-25T18:27:06.397Z,94964.13
2022-07-25T18:29:37.020Z,94963.19
2022-07-25T18:32:04.934Z,94965.31
2022-07-25T18:34:32.787Z,94969.28
2022-07-25T18:37:00.462Z,94972.91
2022-07-25T18:39:29.516Z,94976.53
2022-07-25T18:41:57.159Z,94974.50
2022-07-25T18:44:24.861Z,94977.63
2022-07-25T18:46:52.632Z,94987.69
2022-07-25T18:49:21.241Z,94976.72
2022-07-25T18:51:48.908Z,94980.50
2022-07-25T18:54:17.019Z,94971.09
2022-07-25T18:56:45.982Z,94966.38
2022-07-25T18:59:14.468Z,94968.84
2022-07-25T19:01:42.213Z,94984.63
2022-07-25T19:04:10.306Z,94991.06
2022-07-25T19:06:38.352Z,94999.94
2022-07-25T19:09:06.049Z,95014.88
2022-07-25T19:11:37.638Z,95025.47
2022-07-25T19:14:10.924Z,95026.91
2022-07-25T19:16:38.775Z,95016.81
2022-07-25T19:19:06.972Z,95029.97
2022-07-25T19:21:34.628Z,95031.75
2022-07-25T19:24:02.600Z,95038.28
2022-07-25T19:26:30.353Z,95044.34
2022-07-25T19:28:58.678Z,95046.69
2022-07-25T19:31:27.770Z,95054.84
2022-07-25T19:33:56.373Z,95052.59
2022-07-25T19:36:24.073Z,95059.66
2022-07-25T19:38:52.037Z,95081.91
2022-07-25T19:41:19.694Z,95098.06
2022-07-25T19:43:47.407Z,95103.31
2022-07-25T19:46:15.437Z,95111.16
2022-07-25T19:48:44.722Z,95098.88
2022-07-25T19:51:12.744Z,95116.88
2022-07-25T19:53:40.512Z,95111.41
2022-07-25T19:56:09.160Z,95112.31
2022-07-25T19:58:39.098Z,95114.25
2022-07-25T20:01:11.298Z,95113.56
2022-07-25T20:03:39.026Z,95114.25
2022-07-25T20:06:08.984Z,95118.97
2022-07-25T20:08:39.275Z,95137.84
2022-07-25T20:11:07.306Z,95132.56
2022-07-25T20:13:35.542Z,95116.97
2022-07-25T20:16:03.843Z,95124.84
2022-07-25T20:18:32.671Z,95093.03
2022-07-25T20:21:00.373Z,95081.41
2022-07-25T20:23:30.140Z,95103.72
2022-07-25T20:25:58.331Z,95122.00
2022-07-25T20:28:26.088Z,95161.75
2022-07-25T20:30:55.774Z,95234.88
2022-07-25T20:33:26.949Z,95294.63
2022-07-25T20:35:54.833Z,95294.44
2022-07-25T20:38:22.804Z,95278.00
2022-07-25T20:40:53.396Z,95268.28
2022-07-25T20:43:21.735Z,95261.81
2022-07-25T20:45:50.250Z,95260.22
2022-07-25T20:48:18.249Z,95258.03
2022-07-25T20:50:45.991Z,95260.41
2022-07-25T20:53:13.709Z,95266.63
2022-07-25T20:55:41.858Z,95254.25
2022-07-25T20:58:10.879Z,95252.66
2022-07-25T21:00:39.146Z,95255.88
2022-07-25T21:03:08.050Z,95271.72
2022-07-25T21:05:37.809Z,95283.59
2022-07-25T21:08:06.163Z,95284.94
2022-07-25T21:10:34.240Z,95280.06
2022-07-25T21:13:02.295Z,95280.84
2022-07-25T21:15:31.960Z,95283.31
2022-07-25T21:17:59.821Z,95263.66
2022-07-25T21:20:28.118Z,95262.25
2022-07-25T21:22:56.250Z,95259.81
2022-07-25T21:25:24.151Z,95276.00
2022-07-25T21:27:51.811Z,95291.69
2022-07-25T21:30:19.663Z,95301.09
2022-07-25T21:32:48.719Z,95324.28
2022-07-25T21:35:18.118Z,95330.78
2022-07-25T21:37:46.059Z,95341.53
2022-07-25T21:40:13.930Z,95340.47
2022-07-25T21:42:43.446Z,95336.16
2022-07-25T21:45:12.167Z,95339.66
2022-07-25T21:47:39.873Z,95352.34
2022-07-25T21:50:28.463Z,95373.34
2022-07-25T21:52:56.433Z,95395.31
2022-07-25T21:55:24.623Z,95398.03
2022-07-25T21:57:52.838Z,95394.25
2022-07-25T22:00:21.342Z,95393.69
2022-07-25T22:02:49.451Z,95396.94
2022-07-25T22:05:20.301Z,95391.03
2022-07-25T22:07:48.961Z,95386.19
2022-07-25T22:10:18.984Z,95374.84
2022-07-25T22:12:47.726Z,95376.50
2022-07-25T22:15:16.747Z,95388.84
2022-07-25T22:17:49.724Z,95393.75
2022-07-25T22:20:20.043Z,95402.28
2022-07-25T22:22:47.953Z,95400.44
2022-07-25T22:25:16.260Z,95404.47
2022-07-25T22:27:44.099Z,95402.88
2022-07-25T22:30:17.951Z,95412.00
2022-07-25T22:32:46.457Z,95420.50
2022-07-25T22:35:14.695Z,95442.63
2022-07-25T22:37:43.873Z,95457.34
2022-07-25T22:40:13.675Z,95458.19
2022-07-25T22:42:41.809Z,95458.50
2022-07-25T22:45:10.690Z,95453.66
2022-07-25T22:47:39.347Z,95452.59
2022-07-25T22:50:08.974Z,95458.97
2022-07-25T22:52:36.955Z,95466.22
2022-07-25T22:55:06.846Z,95458.72
2022-07-25T22:57:37.095Z,95459.56
2022-07-25T23:00:08.127Z,95464.59
2022-07-25T23:02:35.929Z,95462.94
2022-07-25T23:05:03.739Z,95472.94
2022-07-25T23:07:32.122Z,95480.22
2022-07-25T23:09:59.970Z,95475.97
2022-07-25T23:12:29.442Z,95478.69
2022-07-25T23:14:57.075Z,95483.53
2022-07-25T23:17:25.335Z,95478.44
2022-07-25T23:19:54.490Z,95472.25
2022-07-25T23:22:23.654Z,95480.84
2022-07-25T23:24:51.591Z,95488.34
2022-07-25T23:27:19.504Z,95482.44
2022-07-25T23:29:48.490Z,95485.69
2022-07-25T23:32:16.557Z,95479.78
2022-07-25T23:34:44.181Z,95478.69
2022-07-25T23:37:12.229Z,95477.59
2022-07-25T23:39:39.839Z,95475.44
2022-07-25T23:42:07.655Z,95482.44
2022-07-25T23:44:36.534Z,95476.78
2022-07-25T23:47:10.138Z,95474.38
2022-07-25T23:49:38.592Z,95473.31
2022-07-25T23:52:06.623Z,95470.06
2022-07-25T23:54:34.850Z,95471.94
2022-07-25T23:57:03.371Z,95470.31
2022-07-25T23:59:31.134Z,95467.59
